sensor_id;sensor_type;location;lat;lon;timestamp;P1;durP1;ratioP1;P2;durP2;ratioP2
7215;SDS011;3649;48.798;9.798;2022-08-27T00:00:47;7.50;;;6.83;;
7215;SDS011;3649;48.798;9.798;2022-08-27T00:03:14;8.80;;;7.60;;
7215;SDS011;3649;48.798;9.798;2022-08-27T00:05:43;8.30;;;6.70;;
7215;SDS011;3649;48.798;9.798;2022-08-27T00:08:11;7.03;;;6.43;;
7215;SDS011;3649;48.798;9.798;2022-08-27T00:10:39;7.87;;;7.07;;
7215;SDS011;3649;48.798;9.798;2022-08-27T00:13:07;8.23;;;7.40;;
7215;SDS011;3649;48.798;9.798;2022-08-27T00:15:34;8.13;;;7.00;;
7215;SDS011;3649;48.798;9.798;2022-08-27T00:18:02;9.23;;;6.50;;
7215;SDS011;3649;48.798;9.798;2022-08-27T00:20:29;7.97;;;7.27;;
7215;SDS011;3649;48.798;9.798;2022-08-27T00:22:56;8.70;;;7.47;;
7215;SDS011;3649;48.798;9.798;2022-08-27T00:25:23;9.80;;;6.93;;
7215;SDS011;3649;48.798;9.798;2022-08-27T00:27:50;8.47;;;7.37;;
7215;SDS011;3649;48.798;9.798;2022-08-27T00:30:18;8.07;;;6.73;;
7215;SDS011;3649;48.798;9.798;2022-08-27T00:32:47;12.07;;;7.20;;
7215;SDS011;3649;48.798;9.798;2022-08-27T00:35:14;7.87;;;7.10;;
7215;SDS011;3649;48.798;9.798;2022-08-27T00:37:42;8.33;;;7.53;;
7215;SDS011;3649;48.798;9.798;2022-08-27T00:40:11;8.23;;;7.23;;
7215;SDS011;3649;48.798;9.798;2022-08-27T00:42:44;10.23;;;7.13;;
7215;SDS011;3649;48.798;9.798;2022-08-27T00:45:12;8.90;;;7.40;;
7215;SDS011;3649;48.798;9.798;2022-08-27T00:47:52;9.60;;;7.37;;
7215;SDS011;3649;48.798;9.798;2022-08-27T00:50:30;9.03;;;7.00;;
7215;SDS011;3649;48.798;9.798;2022-08-27T00:53:14;8.37;;;7.47;;
7215;SDS011;3649;48.798;9.798;2022-08-27T00:56:18;9.43;;;7.77;;
7215;SDS011;3649;48.798;9.798;2022-08-27T00:58:41;9.47;;;8.23;;
7215;SDS011;3649;48.798;9.798;2022-08-27T01:01:12;8.83;;;8.03;;
7215;SDS011;3649;48.798;9.798;2022-08-27T01:03:43;9.00;;;8.10;;
7215;SDS011;3649;48.798;9.798;2022-08-27T01:06:13;8.63;;;7.73;;
7215;SDS011;3649;48.798;9.798;2022-08-27T01:08:50;8.70;;;7.83;;
7215;SDS011;3649;48.798;9.798;2022-08-27T01:11:20;9.97;;;8.97;;
7215;SDS011;3649;48.798;9.798;2022-08-27T01:13:47;10.00;;;8.30;;
7215;SDS011;3649;48.798;9.798;2022-08-27T01:16:28;9.60;;;8.53;;
7215;SDS011;3649;48.798;9.798;2022-08-27T01:19:01;10.17;;;7.97;;
7215;SDS011;3649;48.798;9.798;2022-08-27T01:24:28;10.10;;;8.83;;
7215;SDS011;3649;48.798;9.798;2022-08-27T01:27:05;10.37;;;9.13;;
7215;SDS011;3649;48.798;9.798;2022-08-27T01:29:39;9.77;;;8.87;;
7215;SDS011;3649;48.798;9.798;2022-08-27T01:32:09;11.00;;;9.00;;
7215;SDS011;3649;48.798;9.798;2022-08-27T01:34:48;10.30;;;9.20;;
7215;SDS011;3649;48.798;9.798;2022-08-27T01:37:15;11.43;;;9.90;;
7215;SDS011;3649;48.798;9.798;2022-08-27T01:39:48;11.00;;;9.90;;
7215;SDS011;3649;48.798;9.798;2022-08-27T01:42:20;11.40;;;10.20;;
7215;SDS011;3649;48.798;9.798;2022-08-27T01:44:51;11.37;;;9.70;;
7215;SDS011;3649;48.798;9.798;2022-08-27T01:47:21;12.00;;;10.03;;
7215;SDS011;3649;48.798;9.798;2022-08-27T01:49:56;10.97;;;9.70;;
7215;SDS011;3649;48.798;9.798;2022-08-27T01:52:28;11.23;;;9.70;;
7215;SDS011;3649;48.798;9.798;2022-08-27T01:54:55;10.80;;;9.80;;
7215;SDS011;3649;48.798;9.798;2022-08-27T01:57:22;12.33;;;10.77;;
7215;SDS011;3649;48.798;9.798;2022-08-27T01:59:51;11.70;;;9.60;;
7215;SDS011;3649;48.798;9.798;2022-08-27T02:02:20;10.93;;;9.93;;
7215;SDS011;3649;48.798;9.798;2022-08-27T02:04:47;13.80;;;10.43;;
7215;SDS011;3649;48.798;9.798;2022-08-27T02:07:16;12.10;;;10.50;;
7215;SDS011;3649;48.798;9.798;2022-08-27T02:09:43;13.23;;;10.00;;
7215;SDS011;3649;48.798;9.798;2022-08-27T02:12:10;11.97;;;10.43;;
7215;SDS011;3649;48.798;9.798;2022-08-27T02:14:37;13.60;;;11.70;;
7215;SDS011;3649;48.798;9.798;2022-08-27T02:17:04;16.80;;;11.07;;
7215;SDS011;3649;48.798;9.798;2022-08-27T02:19:31;14.47;;;10.40;;
7215;SDS011;3649;48.798;9.798;2022-08-27T02:21:57;12.00;;;10.63;;
7215;SDS011;3649;48.798;9.798;2022-08-27T02:24:28;11.47;;;10.33;;
7215;SDS011;3649;48.798;9.798;2022-08-27T02:26:55;11.93;;;9.97;;
7215;SDS011;3649;48.798;9.798;2022-08-27T02:29:23;14.57;;;10.57;;
7215;SDS011;3649;48.798;9.798;2022-08-27T02:31:50;11.73;;;10.57;;
7215;SDS011;3649;48.798;9.798;2022-08-27T02:34:17;13.23;;;10.93;;
7215;SDS011;3649;48.798;9.798;2022-08-27T02:36:44;15.07;;;11.43;;
7215;SDS011;3649;48.798;9.798;2022-08-27T02:39:12;12.67;;;11.27;;
7215;SDS011;3649;48.798;9.798;2022-08-27T02:41:39;14.93;;;11.90;;
7215;SDS011;3649;48.798;9.798;2022-08-27T02:44:05;13.17;;;11.67;;
7215;SDS011;3649;48.798;9.798;2022-08-27T02:46:36;12.93;;;11.63;;
7215;SDS011;3649;48.798;9.798;2022-08-27T02:49:04;13.20;;;11.27;;
7215;SDS011;3649;48.798;9.798;2022-08-27T02:51:31;14.40;;;11.10;;
7215;SDS011;3649;48.798;9.798;2022-08-27T02:53:59;15.77;;;11.70;;
7215;SDS011;3649;48.798;9.798;2022-08-27T02:56:27;14.27;;;10.83;;
7215;SDS011;3649;48.798;9.798;2022-08-27T02:58:54;13.17;;;11.80;;
7215;SDS011;3649;48.798;9.798;2022-08-27T03:01:21;13.00;;;11.40;;
7215;SDS011;3649;48.798;9.798;2022-08-27T03:03:47;14.23;;;11.50;;
7215;SDS011;3649;48.798;9.798;2022-08-27T03:06:14;13.73;;;12.27;;
7215;SDS011;3649;48.798;9.798;2022-08-27T03:08:41;14.27;;;11.63;;
7215;SDS011;3649;48.798;9.798;2022-08-27T03:11:18;15.77;;;11.83;;
7215;SDS011;3649;48.798;9.798;2022-08-27T03:13:48;14.37;;;12.60;;
7215;SDS011;3649;48.798;9.798;2022-08-27T03:16:15;13.77;;;12.33;;
7215;SDS011;3649;48.798;9.798;2022-08-27T03:18:43;18.17;;;12.83;;
7215;SDS011;3649;48.798;9.798;2022-08-27T03:21:15;15.83;;;12.23;;
7215;SDS011;3649;48.798;9.798;2022-08-27T03:23:44;14.40;;;11.77;;
7215;SDS011;3649;48.798;9.798;2022-08-27T03:26:12;18.53;;;13.17;;
7215;SDS011;3649;48.798;9.798;2022-08-27T03:28:39;15.93;;;13.20;;
7215;SDS011;3649;48.798;9.798;2022-08-27T03:31:07;14.00;;;12.50;;
7215;SDS011;3649;48.798;9.798;2022-08-27T03:33:40;18.53;;;12.70;;
7215;SDS011;3649;48.798;9.798;2022-08-27T03:36:08;15.70;;;13.53;;
7215;SDS011;3649;48.798;9.798;2022-08-27T03:38:35;15.40;;;13.70;;
7215;SDS011;3649;48.798;9.798;2022-08-27T03:41:03;22.03;;;13.80;;
7215;SDS011;3649;48.798;9.798;2022-08-27T03:43:30;20.07;;;14.70;;
7215;SDS011;3649;48.798;9.798;2022-08-27T03:45:57;16.53;;;13.77;;
7215;SDS011;3649;48.798;9.798;2022-08-27T03:48:27;14.43;;;12.43;;
7215;SDS011;3649;48.798;9.798;2022-08-27T03:50:57;15.17;;;13.50;;
7215;SDS011;3649;48.798;9.798;2022-08-27T03:53:25;17.47;;;13.17;;
7215;SDS011;3649;48.798;9.798;2022-08-27T03:55:53;18.83;;;12.90;;
7215;SDS011;3649;48.798;9.798;2022-08-27T03:58:20;19.87;;;12.93;;
7215;SDS011;3649;48.798;9.798;2022-08-27T04:00:47;15.77;;;12.93;;
7215;SDS011;3649;48.798;9.798;2022-08-27T04:03:14;19.53;;;13.57;;
7215;SDS011;3649;48.798;9.798;2022-08-27T04:05:41;14.53;;;13.03;;
7215;SDS011;3649;48.798;9.798;2022-08-27T04:08:10;17.10;;;13.47;;
7215;SDS011;3649;48.798;9.798;2022-08-27T04:10:39;17.73;;;14.10;;
7215;SDS011;3649;48.798;9.798;2022-08-27T04:13:07;16.20;;;13.43;;
7215;SDS011;3649;48.798;9.798;2022-08-27T04:15:33;17.30;;;13.17;;
7215;SDS011;3649;48.798;9.798;2022-08-27T04:18:05;14.23;;;12.83;;
7215;SDS011;3649;48.798;9.798;2022-08-27T04:20:32;15.63;;;14.03;;
7215;SDS011;3649;48.798;9.798;2022-08-27T04:23:01;15.60;;;12.97;;
7215;SDS011;3649;48.798;9.798;2022-08-27T04:25:29;16.13;;;13.63;;
7215;SDS011;3649;48.798;9.798;2022-08-27T04:27:57;15.40;;;12.67;;
7215;SDS011;3649;48.798;9.798;2022-08-27T04:30:24;15.83;;;12.77;;
7215;SDS011;3649;48.798;9.798;2022-08-27T04:32:51;14.33;;;12.20;;
7215;SDS011;3649;48.798;9.798;2022-08-27T04:35:18;14.03;;;12.63;;
7215;SDS011;3649;48.798;9.798;2022-08-27T04:37:45;16.27;;;13.70;;
7215;SDS011;3649;48.798;9.798;2022-08-27T04:40:12;17.33;;;13.10;;
7215;SDS011;3649;48.798;9.798;2022-08-27T04:42:39;16.50;;;13.00;;
7215;SDS011;3649;48.798;9.798;2022-08-27T04:45:06;19.83;;;14.03;;
7215;SDS011;3649;48.798;9.798;2022-08-27T04:47:34;16.03;;;13.93;;
7215;SDS011;3649;48.798;9.798;2022-08-27T04:50:00;15.13;;;13.53;;
7215;SDS011;3649;48.798;9.798;2022-08-27T04:52:31;20.13;;;16.70;;
7215;SDS011;3649;48.798;9.798;2022-08-27T04:54:58;22.20;;;17.83;;
7215;SDS011;3649;48.798;9.798;2022-08-27T04:57:25;27.37;;;17.90;;
7215;SDS011;3649;48.798;9.798;2022-08-27T04:59:53;23.83;;;18.57;;
7215;SDS011;3649;48.798;9.798;2022-08-27T05:02:20;25.80;;;18.77;;
7215;SDS011;3649;48.798;9.798;2022-08-27T05:04:46;28.13;;;19.03;;
7215;SDS011;3649;48.798;9.798;2022-08-27T05:07:13;21.93;;;18.13;;
7215;SDS011;3649;48.798;9.798;2022-08-27T05:09:40;21.20;;;17.10;;
7215;SDS011;3649;48.798;9.798;2022-08-27T05:12:07;20.87;;;17.13;;
7215;SDS011;3649;48.798;9.798;2022-08-27T05:14:34;22.07;;;17.10;;
7215;SDS011;3649;48.798;9.798;2022-08-27T05:17:01;19.20;;;16.27;;
7215;SDS011;3649;48.798;9.798;2022-08-27T05:19:28;19.00;;;16.37;;
7215;SDS011;3649;48.798;9.798;2022-08-27T05:21:55;21.03;;;18.37;;
7215;SDS011;3649;48.798;9.798;2022-08-27T05:24:22;25.70;;;18.47;;
7215;SDS011;3649;48.798;9.798;2022-08-27T05:26:49;20.13;;;16.13;;
7215;SDS011;3649;48.798;9.798;2022-08-27T05:29:17;21.27;;;17.77;;
7215;SDS011;3649;48.798;9.798;2022-08-27T05:31:44;25.87;;;19.67;;
7215;SDS011;3649;48.798;9.798;2022-08-27T05:34:13;24.70;;;19.33;;
7215;SDS011;3649;48.798;9.798;2022-08-27T05:36:47;27.43;;;20.33;;
7215;SDS011;3649;48.798;9.798;2022-08-27T05:39:14;34.63;;;24.90;;
7215;SDS011;3649;48.798;9.798;2022-08-27T05:41:42;33.60;;;23.37;;
7215;SDS011;3649;48.798;9.798;2022-08-27T05:44:08;31.10;;;23.30;;
7215;SDS011;3649;48.798;9.798;2022-08-27T05:46:56;34.17;;;23.87;;
7215;SDS011;3649;48.798;9.798;2022-08-27T05:49:23;33.20;;;25.47;;
7215;SDS011;3649;48.798;9.798;2022-08-27T05:51:50;35.57;;;25.73;;
7215;SDS011;3649;48.798;9.798;2022-08-27T05:54:17;42.50;;;27.23;;
7215;SDS011;3649;48.798;9.798;2022-08-27T05:56:47;34.67;;;25.30;;
7215;SDS011;3649;48.798;9.798;2022-08-27T05:59:15;36.70;;;26.27;;
7215;SDS011;3649;48.798;9.798;2022-08-27T06:02:01;37.33;;;26.03;;
7215;SDS011;3649;48.798;9.798;2022-08-27T06:04:29;37.67;;;27.37;;
7215;SDS011;3649;48.798;9.798;2022-08-27T06:06:55;38.13;;;27.57;;
7215;SDS011;3649;48.798;9.798;2022-08-27T06:09:23;31.77;;;25.57;;
7215;SDS011;3649;48.798;9.798;2022-08-27T06:11:52;37.77;;;27.37;;
7215;SDS011;3649;48.798;9.798;2022-08-27T06:14:20;36.17;;;28.70;;
7215;SDS011;3649;48.798;9.798;2022-08-27T06:16:47;38.13;;;27.93;;
7215;SDS011;3649;48.798;9.798;2022-08-27T06:19:14;35.57;;;27.10;;
7215;SDS011;3649;48.798;9.798;2022-08-27T06:21:41;37.13;;;28.27;;
7215;SDS011;3649;48.798;9.798;2022-08-27T06:24:09;37.43;;;28.83;;
7215;SDS011;3649;48.798;9.798;2022-08-27T06:26:39;37.27;;;27.13;;
7215;SDS011;3649;48.798;9.798;2022-08-27T06:29:08;41.73;;;28.40;;
7215;SDS011;3649;48.798;9.798;2022-08-27T06:31:36;36.43;;;27.73;;
7215;SDS011;3649;48.798;9.798;2022-08-27T06:34:06;35.80;;;27.40;;
7215;SDS011;3649;48.798;9.798;2022-08-27T06:36:35;37.80;;;28.97;;
7215;SDS011;3649;48.798;9.798;2022-08-27T06:39:04;38.87;;;28.50;;
7215;SDS011;3649;48.798;9.798;2022-08-27T06:41:32;39.10;;;30.93;;
7215;SDS011;3649;48.798;9.798;2022-08-27T06:43:59;37.83;;;28.37;;
7215;SDS011;3649;48.798;9.798;2022-08-27T06:46:26;32.60;;;28.43;;
7215;SDS011;3649;48.798;9.798;2022-08-27T06:48:55;40.03;;;28.87;;
7215;SDS011;3649;48.798;9.798;2022-08-27T06:51:29;40.80;;;30.73;;
7215;SDS011;3649;48.798;9.798;2022-08-27T06:53:59;38.43;;;29.77;;
7215;SDS011;3649;48.798;9.798;2022-08-27T06:56:29;36.97;;;29.40;;
7215;SDS011;3649;48.798;9.798;2022-08-27T06:58:58;41.63;;;30.67;;
7215;SDS011;3649;48.798;9.798;2022-08-27T07:01:31;39.87;;;29.73;;
7215;SDS011;3649;48.798;9.798;2022-08-27T07:04:04;43.17;;;31.03;;
7215;SDS011;3649;48.798;9.798;2022-08-27T07:06:33;39.03;;;30.73;;
7215;SDS011;3649;48.798;9.798;2022-08-27T07:09:01;39.77;;;31.43;;
7215;SDS011;3649;48.798;9.798;2022-08-27T07:11:29;43.60;;;30.60;;
7215;SDS011;3649;48.798;9.798;2022-08-27T07:13:57;43.90;;;31.73;;
7215;SDS011;3649;48.798;9.798;2022-08-27T07:16:25;43.77;;;31.93;;
7215;SDS011;3649;48.798;9.798;2022-08-27T07:18:55;42.73;;;32.10;;
7215;SDS011;3649;48.798;9.798;2022-08-27T07:21:29;39.47;;;29.73;;
7215;SDS011;3649;48.798;9.798;2022-08-27T07:23:57;40.50;;;30.57;;
7215;SDS011;3649;48.798;9.798;2022-08-27T07:26:30;45.27;;;32.57;;
7215;SDS011;3649;48.798;9.798;2022-08-27T07:29:02;41.90;;;30.33;;
7215;SDS011;3649;48.798;9.798;2022-08-27T07:31:31;46.47;;;32.37;;
7215;SDS011;3649;48.798;9.798;2022-08-27T07:34:01;38.07;;;31.00;;
7215;SDS011;3649;48.798;9.798;2022-08-27T07:36:28;39.60;;;29.73;;
7215;SDS011;3649;48.798;9.798;2022-08-27T07:38:55;37.90;;;31.03;;
7215;SDS011;3649;48.798;9.798;2022-08-27T07:41:28;42.00;;;30.93;;
7215;SDS011;3649;48.798;9.798;2022-08-27T07:43:59;40.07;;;30.57;;
7215;SDS011;3649;48.798;9.798;2022-08-27T07:46:46;39.03;;;29.67;;
7215;SDS011;3649;48.798;9.798;2022-08-27T07:49:17;42.17;;;30.07;;
7215;SDS011;3649;48.798;9.798;2022-08-27T07:51:45;36.83;;;28.90;;
7215;SDS011;3649;48.798;9.798;2022-08-27T07:54:12;38.93;;;29.27;;
7215;SDS011;3649;48.798;9.798;2022-08-27T07:56:40;43.40;;;29.83;;
7215;SDS011;3649;48.798;9.798;2022-08-27T07:59:07;40.37;;;30.43;;
7215;SDS011;3649;48.798;9.798;2022-08-27T08:01:34;36.33;;;30.67;;
7215;SDS011;3649;48.798;9.798;2022-08-27T08:04:01;42.13;;;30.17;;
7215;SDS011;3649;48.798;9.798;2022-08-27T08:06:28;42.40;;;31.37;;
7215;SDS011;3649;48.798;9.798;2022-08-27T08:08:58;43.23;;;31.43;;
7215;SDS011;3649;48.798;9.798;2022-08-27T08:11:25;42.53;;;30.60;;
7215;SDS011;3649;48.798;9.798;2022-08-27T08:13:52;42.07;;;30.77;;
7215;SDS011;3649;48.798;9.798;2022-08-27T08:16:19;42.53;;;30.27;;
7215;SDS011;3649;48.798;9.798;2022-08-27T08:18:56;38.97;;;31.00;;
7215;SDS011;3649;48.798;9.798;2022-08-27T08:21:25;40.67;;;30.30;;
7215;SDS011;3649;48.798;9.798;2022-08-27T08:23:52;37.13;;;28.70;;
7215;SDS011;3649;48.798;9.798;2022-08-27T08:26:19;42.03;;;30.27;;
7215;SDS011;3649;48.798;9.798;2022-08-27T08:28:46;34.63;;;28.67;;
7215;SDS011;3649;48.798;9.798;2022-08-27T08:31:13;35.37;;;27.23;;
7215;SDS011;3649;48.798;9.798;2022-08-27T08:33:40;38.87;;;29.67;;
7215;SDS011;3649;48.798;9.798;2022-08-27T08:36:11;38.53;;;29.23;;
7215;SDS011;3649;48.798;9.798;2022-08-27T08:38:40;41.37;;;30.40;;
7215;SDS011;3649;48.798;9.798;2022-08-27T08:43:56;35.37;;;27.70;;
7215;SDS011;3649;48.798;9.798;2022-08-27T08:46:32;37.73;;;27.50;;
7215;SDS011;3649;48.798;9.798;2022-08-27T08:49:17;37.47;;;27.70;;
7215;SDS011;3649;48.798;9.798;2022-08-27T08:55:02;35.43;;;27.83;;
7215;SDS011;3649;48.798;9.798;2022-08-27T08:57:40;33.67;;;27.20;;
7215;SDS011;3649;48.798;9.798;2022-08-27T09:00:13;30.43;;;25.87;;
7215;SDS011;3649;48.798;9.798;2022-08-27T09:02:44;30.87;;;26.73;;
7215;SDS011;3649;48.798;9.798;2022-08-27T09:05:16;31.50;;;25.67;;
7215;SDS011;3649;48.798;9.798;2022-08-27T09:10:54;29.37;;;25.03;;
7215;SDS011;3649;48.798;9.798;2022-08-27T09:13:31;31.00;;;25.33;;
7215;SDS011;3649;48.798;9.798;2022-08-27T09:16:03;29.73;;;25.13;;
7215;SDS011;3649;48.798;9.798;2022-08-27T09:18:31;30.23;;;25.70;;
7215;SDS011;3649;48.798;9.798;2022-08-27T09:21:05;29.43;;;24.13;;
7215;SDS011;3649;48.798;9.798;2022-08-27T09:26:18;29.87;;;24.60;;
7215;SDS011;3649;48.798;9.798;2022-08-27T09:28:46;26.63;;;23.73;;
7215;SDS011;3649;48.798;9.798;2022-08-27T09:31:34;25.07;;;22.37;;
7215;SDS011;3649;48.798;9.798;2022-08-27T09:34:05;30.97;;;24.80;;
7215;SDS011;3649;48.798;9.798;2022-08-27T09:36:32;29.47;;;23.20;;
7215;SDS011;3649;48.798;9.798;2022-08-27T09:39:02;28.67;;;23.80;;
7215;SDS011;3649;48.798;9.798;2022-08-27T09:41:41;26.93;;;23.50;;
7215;SDS011;3649;48.798;9.798;2022-08-27T09:44:12;26.70;;;23.33;;
7215;SDS011;3649;48.798;9.798;2022-08-27T09:46:52;25.23;;;22.33;;
7215;SDS011;3649;48.798;9.798;2022-08-27T09:49:21;26.27;;;21.47;;
7215;SDS011;3649;48.798;9.798;2022-08-27T09:51:49;28.00;;;22.87;;
7215;SDS011;3649;48.798;9.798;2022-08-27T09:54:25;26.77;;;22.20;;
7215;SDS011;3649;48.798;9.798;2022-08-27T09:57:02;26.60;;;21.77;;
7215;SDS011;3649;48.798;9.798;2022-08-27T10:00:14;27.43;;;23.20;;
7215;SDS011;3649;48.798;9.798;2022-08-27T10:02:22;24.83;;;21.53;;
7215;SDS011;3649;48.798;9.798;2022-08-27T10:04:52;25.37;;;21.43;;
7215;SDS011;3649;48.798;9.798;2022-08-27T10:07:23;26.37;;;21.47;;
7215;SDS011;3649;48.798;9.798;2022-08-27T10:10:25;22.07;;;19.70;;
7215;SDS011;3649;48.798;9.798;2022-08-27T10:18:42;11.87;;;10.67;;
7215;SDS011;3649;48.798;9.798;2022-08-27T10:21:35;7.50;;;6.67;;
7215;SDS011;3649;48.798;9.798;2022-08-27T10:27:04;6.70;;;5.87;;
7215;SDS011;3649;48.798;9.798;2022-08-27T10:32:38;6.43;;;5.50;;
7215;SDS011;3649;48.798;9.798;2022-08-27T10:35:38;5.93;;;5.43;;
7215;SDS011;3649;48.798;9.798;2022-08-27T10:40:58;4.30;;;3.90;;
7215;SDS011;3649;48.798;9.798;2022-08-27T10:55:01;3.97;;;3.67;;
7215;SDS011;3649;48.798;9.798;2022-08-27T11:00:33;4.37;;;3.73;;
7215;SDS011;3649;48.798;9.798;2022-08-27T11:03:26;4.30;;;3.20;;
7215;SDS011;3649;48.798;9.798;2022-08-27T11:06:10;6.00;;;2.80;;
7215;SDS011;3649;48.798;9.798;2022-08-27T11:08:53;2.87;;;2.50;;
7215;SDS011;3649;48.798;9.798;2022-08-27T11:11:54;3.03;;;2.83;;
7215;SDS011;3649;48.798;9.798;2022-08-27T11:17:23;3.20;;;3.00;;
7215;SDS011;3649;48.798;9.798;2022-08-27T11:20:13;3.20;;;2.90;;
7215;SDS011;3649;48.798;9.798;2022-08-27T11:22:55;3.37;;;3.07;;
7215;SDS011;3649;48.798;9.798;2022-08-27T11:25:32;3.50;;;3.20;;
7215;SDS011;3649;48.798;9.798;2022-08-27T11:28:03;3.20;;;3.00;;
7215;SDS011;3649;48.798;9.798;2022-08-27T11:30:38;3.63;;;3.33;;
7215;SDS011;3649;48.798;9.798;2022-08-27T11:33:34;3.43;;;3.13;;
7215;SDS011;3649;48.798;9.798;2022-08-27T11:39:16;3.50;;;3.20;;
7215;SDS011;3649;48.798;9.798;2022-08-27T11:42:08;4.07;;;3.43;;
7215;SDS011;3649;48.798;9.798;2022-08-27T11:44:46;5.07;;;3.30;;
7215;SDS011;3649;48.798;9.798;2022-08-27T11:49:49;4.77;;;4.13;;
7215;SDS011;3649;48.798;9.798;2022-08-27T11:57:40;4.20;;;3.80;;
7215;SDS011;3649;48.798;9.798;2022-08-27T12:00:16;6.43;;;3.87;;
7215;SDS011;3649;48.798;9.798;2022-08-27T12:02:43;4.10;;;3.70;;
7215;SDS011;3649;48.798;9.798;2022-08-27T12:05:22;3.50;;;3.20;;
7215;SDS011;3649;48.798;9.798;2022-08-27T12:07:58;4.03;;;3.50;;
7215;SDS011;3649;48.798;9.798;2022-08-27T12:10:47;5.57;;;3.40;;
7215;SDS011;3649;48.798;9.798;2022-08-27T12:13:27;3.80;;;3.37;;
7215;SDS011;3649;48.798;9.798;2022-08-27T12:16:39;4.17;;;3.77;;
7215;SDS011;3649;48.798;9.798;2022-08-27T12:22:28;3.50;;;3.20;;
7215;SDS011;3649;48.798;9.798;2022-08-27T12:25:29;4.03;;;3.63;;
7215;SDS011;3649;48.798;9.798;2022-08-27T12:28:00;4.13;;;3.73;;
7215;SDS011;3649;48.798;9.798;2022-08-27T12:31:03;3.70;;;3.50;;
7215;SDS011;3649;48.798;9.798;2022-08-27T12:33:34;6.23;;;3.40;;
7215;SDS011;3649;48.798;9.798;2022-08-27T12:36:08;3.70;;;3.40;;
7215;SDS011;3649;48.798;9.798;2022-08-27T12:38:46;4.10;;;3.80;;
7215;SDS011;3649;48.798;9.798;2022-08-27T12:41:25;4.03;;;3.73;;
7215;SDS011;3649;48.798;9.798;2022-08-27T12:44:14;4.30;;;3.87;;
7215;SDS011;3649;48.798;9.798;2022-08-27T12:46:53;5.20;;;4.13;;
7215;SDS011;3649;48.798;9.798;2022-08-27T12:49:30;4.47;;;3.70;;
7215;SDS011;3649;48.798;9.798;2022-08-27T13:00:59;4.00;;;3.70;;
7215;SDS011;3649;48.798;9.798;2022-08-27T13:03:39;4.20;;;3.90;;
7215;SDS011;3649;48.798;9.798;2022-08-27T13:06:17;4.67;;;4.27;;
7215;SDS011;3649;48.798;9.798;2022-08-27T13:08:51;5.13;;;4.73;;
7215;SDS011;3649;48.798;9.798;2022-08-27T13:11:21;4.23;;;3.83;;
7215;SDS011;3649;48.798;9.798;2022-08-27T13:14:03;4.43;;;4.03;;
7215;SDS011;3649;48.798;9.798;2022-08-27T13:16:36;4.83;;;4.30;;
7215;SDS011;3649;48.798;9.798;2022-08-27T13:19:20;4.97;;;4.57;;
7215;SDS011;3649;48.798;9.798;2022-08-27T13:21:50;4.50;;;4.20;;
7215;SDS011;3649;48.798;9.798;2022-08-27T13:24:20;4.70;;;4.30;;
7215;SDS011;3649;48.798;9.798;2022-08-27T13:26:57;5.37;;;4.87;;
7215;SDS011;3649;48.798;9.798;2022-08-27T13:29:24;5.63;;;5.07;;
7215;SDS011;3649;48.798;9.798;2022-08-27T13:31:52;5.03;;;4.60;;
7215;SDS011;3649;48.798;9.798;2022-08-27T13:34:21;5.33;;;4.70;;
7215;SDS011;3649;48.798;9.798;2022-08-27T13:36:58;4.93;;;4.43;;
7215;SDS011;3649;48.798;9.798;2022-08-27T13:39:29;5.23;;;4.80;;
7215;SDS011;3649;48.798;9.798;2022-08-27T13:41:58;5.27;;;4.77;;
7215;SDS011;3649;48.798;9.798;2022-08-27T13:44:34;4.47;;;4.17;;
7215;SDS011;3649;48.798;9.798;2022-08-27T13:47:04;4.80;;;4.40;;
7215;SDS011;3649;48.798;9.798;2022-08-27T13:49:36;5.03;;;4.63;;
7215;SDS011;3649;48.798;9.798;2022-08-27T13:54:48;4.83;;;4.37;;
7215;SDS011;3649;48.798;9.798;2022-08-27T13:57:38;6.53;;;4.63;;
7215;SDS011;3649;48.798;9.798;2022-08-27T14:00:19;5.13;;;4.57;;
7215;SDS011;3649;48.798;9.798;2022-08-27T14:02:48;6.27;;;4.40;;
7215;SDS011;3649;48.798;9.798;2022-08-27T14:07:52;5.43;;;4.93;;
7215;SDS011;3649;48.798;9.798;2022-08-27T14:12:57;5.27;;;4.83;;
7215;SDS011;3649;48.798;9.798;2022-08-27T14:15:31;5.00;;;4.60;;
7215;SDS011;3649;48.798;9.798;2022-08-27T14:18:31;5.47;;;4.90;;
7215;SDS011;3649;48.798;9.798;2022-08-27T14:21:20;5.17;;;4.77;;
7215;SDS011;3649;48.798;9.798;2022-08-27T14:23:48;4.30;;;3.90;;
7215;SDS011;3649;48.798;9.798;2022-08-27T14:26:15;4.57;;;4.27;;
7215;SDS011;3649;48.798;9.798;2022-08-27T14:28:43;4.27;;;3.87;;
7215;SDS011;3649;48.798;9.798;2022-08-27T14:31:10;3.73;;;3.47;;
7215;SDS011;3649;48.798;9.798;2022-08-27T14:33:39;4.10;;;3.53;;
7215;SDS011;3649;48.798;9.798;2022-08-27T14:36:06;4.30;;;4.00;;
7215;SDS011;3649;48.798;9.798;2022-08-27T14:38:35;3.70;;;3.40;;
7215;SDS011;3649;48.798;9.798;2022-08-27T14:41:06;3.47;;;3.27;;
7215;SDS011;3649;48.798;9.798;2022-08-27T14:43:33;3.97;;;3.60;;
7215;SDS011;3649;48.798;9.798;2022-08-27T14:46:00;3.90;;;3.60;;
7215;SDS011;3649;48.798;9.798;2022-08-27T14:48:28;3.50;;;3.30;;
7215;SDS011;3649;48.798;9.798;2022-08-27T14:50:58;4.03;;;3.60;;
7215;SDS011;3649;48.798;9.798;2022-08-27T14:53:31;4.10;;;3.80;;
7215;SDS011;3649;48.798;9.798;2022-08-27T14:55:57;6.97;;;4.00;;
7215;SDS011;3649;48.798;9.798;2022-08-27T14:58:26;4.43;;;4.10;;
7215;SDS011;3649;48.798;9.798;2022-08-27T15:00:55;4.80;;;4.40;;
7215;SDS011;3649;48.798;9.798;2022-08-27T15:03:22;5.23;;;4.83;;
7215;SDS011;3649;48.798;9.798;2022-08-27T15:05:53;6.30;;;5.70;;
7215;SDS011;3649;48.798;9.798;2022-08-27T15:08:21;5.10;;;4.60;;
7215;SDS011;3649;48.798;9.798;2022-08-27T15:10:57;4.50;;;4.20;;
7215;SDS011;3649;48.798;9.798;2022-08-27T15:13:24;5.20;;;4.30;;
7215;SDS011;3649;48.798;9.798;2022-08-27T15:15:51;4.73;;;4.33;;
7215;SDS011;3649;48.798;9.798;2022-08-27T15:18:18;5.23;;;4.60;;
7215;SDS011;3649;48.798;9.798;2022-08-27T15:20:45;5.03;;;4.63;;
7215;SDS011;3649;48.798;9.798;2022-08-27T15:23:12;4.90;;;4.50;;
7215;SDS011;3649;48.798;9.798;2022-08-27T15:25:41;6.80;;;5.80;;
7215;SDS011;3649;48.798;9.798;2022-08-27T15:28:09;7.33;;;6.13;;
7215;SDS011;3649;48.798;9.798;2022-08-27T15:30:37;6.20;;;5.70;;
7215;SDS011;3649;48.798;9.798;2022-08-27T15:33:04;9.40;;;6.10;;
7215;SDS011;3649;48.798;9.798;2022-08-27T15:35:31;7.80;;;6.10;;
7215;SDS011;3649;48.798;9.798;2022-08-27T15:37:59;6.50;;;5.90;;
7215;SDS011;3649;48.798;9.798;2022-08-27T15:40:29;6.63;;;6.03;;
7215;SDS011;3649;48.798;9.798;2022-08-27T15:42:58;6.50;;;6.00;;
7215;SDS011;3649;48.798;9.798;2022-08-27T15:45:28;6.17;;;5.67;;
7215;SDS011;3649;48.798;9.798;2022-08-27T15:47:57;6.87;;;5.90;;
7215;SDS011;3649;48.798;9.798;2022-08-27T15:50:25;6.20;;;5.63;;
7215;SDS011;3649;48.798;9.798;2022-08-27T15:52:56;6.53;;;5.97;;
7215;SDS011;3649;48.798;9.798;2022-08-27T15:55:27;6.53;;;5.93;;
7215;SDS011;3649;48.798;9.798;2022-08-27T15:57:56;6.53;;;6.03;;
7215;SDS011;3649;48.798;9.798;2022-08-27T16:00:24;6.47;;;5.93;;
7215;SDS011;3649;48.798;9.798;2022-08-27T16:02:51;7.33;;;6.63;;
7215;SDS011;3649;48.798;9.798;2022-08-27T16:05:19;6.90;;;6.27;;
7215;SDS011;3649;48.798;9.798;2022-08-27T16:07:47;7.57;;;6.77;;
7215;SDS011;3649;48.798;9.798;2022-08-27T16:10:14;6.43;;;5.83;;
7215;SDS011;3649;48.798;9.798;2022-08-27T16:12:41;6.50;;;5.97;;
7215;SDS011;3649;48.798;9.798;2022-08-27T16:15:08;7.33;;;6.53;;
7215;SDS011;3649;48.798;9.798;2022-08-27T16:17:35;7.07;;;6.53;;
7215;SDS011;3649;48.798;9.798;2022-08-27T16:20:03;7.07;;;6.53;;
7215;SDS011;3649;48.798;9.798;2022-08-27T16:22:31;6.77;;;6.17;;
7215;SDS011;3649;48.798;9.798;2022-08-27T16:25:00;6.40;;;5.90;;
7215;SDS011;3649;48.798;9.798;2022-08-27T16:27:27;7.03;;;6.33;;
7215;SDS011;3649;48.798;9.798;2022-08-27T16:29:54;7.87;;;6.30;;
7215;SDS011;3649;48.798;9.798;2022-08-27T16:32:21;7.07;;;6.47;;
7215;SDS011;3649;48.798;9.798;2022-08-27T16:34:50;7.67;;;6.97;;
7215;SDS011;3649;48.798;9.798;2022-08-27T16:37:21;9.67;;;7.07;;
7215;SDS011;3649;48.798;9.798;2022-08-27T16:39:51;7.63;;;6.83;;
7215;SDS011;3649;48.798;9.798;2022-08-27T16:42:18;8.30;;;6.53;;